createdAt,value
2019-03-13T00:00:57.257Z,9.28
2019-03-13T00:03:25.465Z,9.05
2019-03-13T00:05:53.561Z,8.55
2019-03-13T00:08:21.640Z,8.33
2019-03-13T00:10:49.799Z,8.28
2019-03-13T00:13:17.913Z,8.53
2019-03-13T00:15:49.446Z,7.90
2019-03-13T00:18:15.703Z,8.48
2019-03-13T00:20:43.743Z,9.03
2019-03-13T00:23:11.711Z,9.20
2019-03-13T00:25:39.701Z,9.38
2019-03-13T00:28:07.715Z,9.38
2019-03-13T00:30:35.804Z,10.20
2019-03-13T00:33:03.776Z,10.00
2019-03-13T00:35:31.771Z,10.18
2019-03-13T00:37:59.724Z,9.83
2019-03-13T00:40:27.783Z,10.18
2019-03-13T00:42:55.750Z,9.95
2019-03-13T00:45:23.750Z,9.90
2019-03-13T00:47:51.744Z,9.60
2019-03-13T00:50:24.014Z,8.60
2019-03-13T00:52:52.020Z,8.60
2019-03-13T00:55:19.970Z,8.48
2019-03-13T00:57:47.965Z,8.15
2019-03-13T01:00:24.736Z,8.25
2019-03-13T01:02:53.180Z,7.58
2019-03-13T01:05:33.011Z,7.63
2019-03-13T01:08:01.056Z,7.17
2019-03-13T01:10:29.019Z,7.28
2019-03-13T01:12:57.004Z,6.65
2019-03-13T01:15:24.977Z,6.30
2019-03-13T01:17:52.940Z,5.85
2019-03-13T01:20:20.943Z,6.60
2019-03-13T01:22:48.935Z,5.62
2019-03-13T01:25:16.905Z,5.10
2019-03-13T01:27:44.895Z,4.90
2019-03-13T01:30:13.065Z,4.80
2019-03-13T01:32:48.048Z,4.35
2019-03-13T01:35:53.557Z,4.40
2019-03-13T01:38:21.544Z,3.90
2019-03-13T01:40:49.493Z,3.40
2019-03-13T01:43:17.498Z,3.55
2019-03-13T01:45:45.449Z,3.47
2019-03-13T01:48:13.424Z,3.50
2019-03-13T01:50:41.382Z,2.92
2019-03-13T01:53:09.381Z,3.20
2019-03-13T01:55:37.326Z,2.80
2019-03-13T01:58:05.307Z,2.58
2019-03-13T02:00:33.271Z,2.75
2019-03-13T02:03:01.237Z,2.47
2019-03-13T02:05:29.205Z,2.17
2019-03-13T02:07:57.246Z,2.52
2019-03-13T02:10:25.197Z,2.25
2019-03-13T02:12:53.186Z,2.05
2019-03-13T02:15:21.183Z,2.00
2019-03-13T02:17:49.170Z,2.15
2019-03-13T02:20:17.167Z,2.15
2019-03-13T02:22:45.110Z,2.12
2019-03-13T02:25:13.689Z,2.50
2019-03-13T02:27:41.674Z,2.30
2019-03-13T02:30:10.499Z,2.50
2019-03-13T02:32:38.481Z,2.47
2019-03-13T02:35:06.448Z,2.40
2019-03-13T02:37:34.377Z,2.05
2019-03-13T02:40:02.366Z,2.85
2019-03-13T02:42:30.298Z,2.65
2019-03-13T02:44:58.273Z,2.17
2019-03-13T02:47:26.235Z,2.47
2019-03-13T02:49:54.243Z,2.10
2019-03-13T02:52:22.209Z,2.12
2019-03-13T02:54:50.188Z,2.15
2019-03-13T02:57:18.153Z,2.25
2019-03-13T02:59:46.154Z,2.10
2019-03-13T03:02:22.924Z,2.83
2019-03-13T03:04:50.930Z,2.20
2019-03-13T03:07:18.883Z,2.60
2019-03-13T03:09:46.834Z,2.52
2019-03-13T03:12:14.810Z,4.03
2019-03-13T03:14:58.551Z,2.55
2019-03-13T03:17:26.593Z,2.50
2019-03-13T03:19:54.544Z,1.90
2019-03-13T03:22:22.519Z,2.50
2019-03-13T03:24:50.485Z,2.30
2019-03-13T03:27:18.457Z,2.33
2019-03-13T03:29:46.439Z,2.67
2019-03-13T03:32:14.444Z,2.70
2019-03-13T03:34:42.453Z,2.55
2019-03-13T03:37:10.449Z,2.58
2019-03-13T03:39:38.436Z,2.55
2019-03-13T03:42:06.432Z,2.40
2019-03-13T03:44:34.366Z,2.70
2019-03-13T03:47:02.344Z,2.70
2019-03-13T03:49:30.329Z,2.83
2019-03-13T03:51:58.362Z,2.60
2019-03-13T03:54:26.352Z,2.80
2019-03-13T03:56:54.399Z,2.87
2019-03-13T03:59:22.492Z,2.90
2019-03-13T04:01:50.520Z,2.80
2019-03-13T04:04:18.550Z,3.20
2019-03-13T04:06:46.627Z,3.02
2019-03-13T04:09:14.683Z,2.67
2019-03-13T04:11:42.763Z,2.85
2019-03-13T04:14:10.797Z,3.20
2019-03-13T04:16:38.819Z,2.95
2019-03-13T04:19:06.812Z,2.80
2019-03-13T04:21:34.831Z,2.75
2019-03-13T04:24:02.808Z,2.98
2019-03-13T04:26:30.850Z,2.75
2019-03-13T04:28:58.913Z,3.17
2019-03-13T04:31:26.934Z,3.20
2019-03-13T04:33:54.965Z,3.12
2019-03-13T04:36:23.042Z,3.02
2019-03-13T04:38:51.088Z,3.40
2019-03-13T04:41:19.170Z,2.67
2019-03-13T04:43:47.201Z,3.10
2019-03-13T04:46:15.294Z,2.87
2019-03-13T04:48:43.382Z,3.12
2019-03-13T04:51:11.365Z,3.10
2019-03-13T04:53:39.371Z,3.77
2019-03-13T04:56:07.432Z,3.15
2019-03-13T04:58:35.512Z,3.08
2019-03-13T05:01:03.582Z,2.92
2019-03-13T05:03:31.674Z,2.98
2019-03-13T05:06:01.013Z,3.33
2019-03-13T05:08:30.580Z,3.40
2019-03-13T05:10:58.591Z,2.80
2019-03-13T05:13:26.686Z,3.42
2019-03-13T05:15:54.763Z,3.25
2019-03-13T05:18:22.837Z,3.12
2019-03-13T05:20:51.054Z,3.08
2019-03-13T05:23:19.097Z,3.47
2019-03-13T05:25:47.228Z,3.98
2019-03-13T05:28:15.277Z,3.17
2019-03-13T05:30:43.407Z,2.92
2019-03-13T05:33:11.422Z,3.52
2019-03-13T05:35:39.534Z,3.17
2019-03-13T05:38:07.674Z,3.12
2019-03-13T05:40:35.849Z,3.35
2019-03-13T05:43:03.898Z,3.20
2019-03-13T05:45:32.000Z,3.75
2019-03-13T05:48:00.023Z,3.22
2019-03-13T05:50:28.047Z,3.20
2019-03-13T05:52:56.013Z,3.77
2019-03-13T05:55:24.051Z,3.95
2019-03-13T05:57:52.006Z,3.33
2019-03-13T06:00:21.016Z,3.47
2019-03-13T06:02:51.368Z,3.90
2019-03-13T06:05:19.508Z,3.80
2019-03-13T06:07:47.598Z,4.08
2019-03-13T06:10:15.744Z,3.93
2019-03-13T06:12:43.744Z,3.90
2019-03-13T06:15:12.036Z,3.70
2019-03-13T06:17:40.166Z,3.72
2019-03-13T06:20:10.478Z,3.75
2019-03-13T06:22:38.187Z,3.50
2019-03-13T06:25:06.646Z,4.22
2019-03-13T06:27:34.720Z,3.87
2019-03-13T06:30:02.733Z,3.98
2019-03-13T06:32:30.904Z,3.65
2019-03-13T06:34:58.922Z,3.60
2019-03-13T06:37:27.005Z,3.35
2019-03-13T06:39:55.014Z,3.70
2019-03-13T06:42:23.028Z,3.80
2019-03-13T06:44:51.076Z,3.25
2019-03-13T06:47:19.176Z,3.98
2019-03-13T06:49:47.157Z,3.55
2019-03-13T06:52:15.163Z,4.03
2019-03-13T06:54:43.104Z,3.72
2019-03-13T06:57:11.081Z,3.30
2019-03-13T06:59:56.545Z,3.70
2019-03-13T07:02:46.759Z,3.45
2019-03-13T07:05:24.928Z,3.45
2019-03-13T07:08:10.317Z,3.30
2019-03-13T07:10:46.768Z,3.50
2019-03-13T07:13:33.820Z,3.72
2019-03-13T07:16:07.276Z,3.35
2019-03-13T07:18:55.378Z,3.50
2019-03-13T07:21:41.299Z,3.47
2019-03-13T07:24:22.705Z,3.83
2019-03-13T07:27:07.345Z,3.75
2019-03-13T07:29:54.485Z,3.35
2019-03-13T07:32:42.114Z,3.80
2019-03-13T07:35:38.412Z,3.15
2019-03-13T07:38:34.563Z,3.98
2019-03-13T07:41:09.179Z,3.00
2019-03-13T07:43:54.945Z,2.70
2019-03-13T07:46:41.944Z,2.85
2019-03-13T07:49:35.421Z,3.50
2019-03-13T07:52:32.987Z,3.00
2019-03-13T07:55:16.588Z,3.17
2019-03-13T07:58:09.611Z,3.37
2019-03-13T08:03:34.265Z,2.95
2019-03-13T08:06:21.288Z,3.20
2019-03-13T08:09:02.653Z,3.20
2019-03-13T08:11:39.744Z,3.17
2019-03-13T08:14:24.138Z,3.67
2019-03-13T08:17:23.107Z,3.47
2019-03-13T08:20:13.127Z,3.30
2019-03-13T08:23:00.117Z,3.30
2019-03-13T08:25:56.078Z,3.10
2019-03-13T08:28:41.800Z,3.50
2019-03-13T08:31:31.706Z,3.00
2019-03-13T08:34:17.448Z,3.47
2019-03-13T08:37:00.685Z,3.37
2019-03-13T08:39:44.712Z,3.30
2019-03-13T08:42:30.436Z,2.95
2019-03-13T08:45:28.917Z,2.87
2019-03-13T08:48:12.915Z,2.87
2019-03-13T08:51:09.065Z,2.95
2019-03-13T08:53:56.385Z,3.08
2019-03-13T08:56:40.257Z,2.70
2019-03-13T08:59:39.528Z,3.47
2019-03-13T09:02:17.278Z,4.20
2019-03-13T09:04:55.404Z,3.75
2019-03-13T09:07:48.487Z,3.35
2019-03-13T09:10:34.357Z,3.10
2019-03-13T09:13:22.453Z,3.37
2019-03-13T09:16:21.532Z,3.37
2019-03-13T09:19:08.564Z,3.47
2019-03-13T09:21:55.582Z,3.20
2019-03-13T09:24:42.612Z,3.58
2019-03-13T09:27:29.632Z,3.12
2019-03-13T09:30:05.749Z,3.70
2019-03-13T09:32:56.038Z,3.62
2019-03-13T09:35:46.153Z,3.15
2019-03-13T09:38:45.276Z,3.77
2019-03-13T09:41:41.613Z,3.58
2019-03-13T09:44:28.657Z,3.30
2019-03-13T09:47:27.968Z,3.62
2019-03-13T09:50:18.056Z,3.80
2019-03-13T09:53:08.112Z,3.30
2019-03-13T09:55:53.865Z,3.80
2019-03-13T09:58:33.796Z,3.83
2019-03-13T10:01:39.120Z,3.60
2019-03-13T10:04:32.245Z,3.35
2019-03-13T10:07:34.643Z,3.08
2019-03-13T10:10:21.672Z,3.50
2019-03-13T10:13:11.769Z,3.15
2019-03-13T10:16:01.870Z,3.75
2019-03-13T10:18:58.617Z,3.05
2019-03-13T10:21:51.601Z,3.22
2019-03-13T10:24:34.175Z,3.45
2019-03-13T10:27:20.040Z,2.55
2019-03-13T10:30:03.470Z,3.22
2019-03-13T10:32:42.118Z,3.08
2019-03-13T10:35:29.146Z,2.95
2019-03-13T10:38:19.090Z,8.45
2019-03-13T10:41:12.169Z,3.05
2019-03-13T10:44:05.442Z,2.77
2019-03-13T10:46:51.143Z,2.65
2019-03-13T10:49:35.269Z,2.70
2019-03-13T10:52:28.410Z,2.85
2019-03-13T10:55:08.570Z,2.95
2019-03-13T10:57:53.733Z,2.67
2019-03-13T11:00:30.473Z,2.97
2019-03-13T11:03:09.582Z,2.85
2019-03-13T11:06:08.931Z,3.27
2019-03-13T11:08:58.807Z,3.27
2019-03-13T11:11:41.335Z,3.25
2019-03-13T11:14:21.331Z,4.62
2019-03-13T11:17:08.480Z,3.62
2019-03-13T11:19:55.561Z,3.00
2019-03-13T11:22:29.613Z,2.92
2019-03-13T11:25:02.089Z,2.90
2019-03-13T11:27:57.821Z,3.72
2019-03-13T11:30:43.677Z,3.22
2019-03-13T11:33:27.638Z,3.02
2019-03-13T11:36:14.689Z,3.47
2019-03-13T11:39:00.730Z,3.10
2019-03-13T11:41:50.351Z,3.35
2019-03-13T11:44:40.182Z,3.42
2019-03-13T11:47:26.047Z,2.70
2019-03-13T11:50:13.069Z,3.10
2019-03-13T11:53:03.205Z,3.22
2019-03-13T11:55:52.889Z,3.42
2019-03-13T11:58:33.013Z,3.40
2019-03-13T12:01:17.494Z,3.50
2019-03-13T12:04:03.281Z,3.37
2019-03-13T12:06:39.309Z,3.22
2019-03-13T12:09:32.857Z,3.83
2019-03-13T12:12:15.573Z,4.00
2019-03-13T12:14:52.455Z,4.30
2019-03-13T12:17:29.710Z,3.60
2019-03-13T12:20:16.831Z,3.90
2019-03-13T12:22:57.818Z,3.20
2019-03-13T12:25:39.439Z,3.65
2019-03-13T12:28:32.325Z,3.62
2019-03-13T12:31:28.341Z,3.30
2019-03-13T12:34:06.712Z,3.25
2019-03-13T12:36:56.557Z,3.30
2019-03-13T12:39:37.968Z,3.30
2019-03-13T12:42:20.834Z,3.50
2019-03-13T12:45:03.381Z,2.85
2019-03-13T12:47:59.706Z,4.03
2019-03-13T12:50:52.757Z,3.50
2019-03-13T12:53:38.763Z,3.27
2019-03-13T12:56:19.468Z,3.20
2019-03-13T12:59:15.784Z,3.75
2019-03-13T13:02:02.921Z,3.10
2019-03-13T13:04:49.932Z,3.65
2019-03-13T13:07:37.135Z,3.83
2019-03-13T13:10:23.250Z,3.35
2019-03-13T13:13:13.184Z,3.55
2019-03-13T13:16:06.256Z,3.90
2019-03-13T13:18:48.203Z,4.05
2019-03-13T13:21:16.183Z,3.70
2019-03-13T13:23:44.170Z,4.30
2019-03-13T13:26:12.224Z,5.42
2019-03-13T13:28:40.263Z,4.35
2019-03-13T13:31:08.545Z,4.35
2019-03-13T13:33:36.634Z,3.37
2019-03-13T13:36:05.420Z,4.35
2019-03-13T13:38:33.531Z,3.95
2019-03-13T13:41:01.582Z,3.58
2019-03-13T13:43:29.648Z,3.75
2019-03-13T13:45:59.669Z,3.85
2019-03-13T13:48:27.682Z,5.87
2019-03-13T13:50:55.676Z,4.40
2019-03-13T13:53:23.757Z,4.28
2019-03-13T13:55:51.773Z,3.80
2019-03-13T13:58:19.790Z,3.85
2019-03-13T14:00:47.840Z,3.90
2019-03-13T14:03:15.839Z,4.30
2019-03-13T14:05:43.829Z,4.35
2019-03-13T14:08:11.881Z,3.75
2019-03-13T14:10:39.953Z,4.22
2019-03-13T14:13:07.966Z,4.47
2019-03-13T14:15:36.069Z,4.00
2019-03-13T14:18:04.136Z,3.77
2019-03-13T14:20:32.203Z,4.10
2019-03-13T14:23:00.290Z,4.25
2019-03-13T14:25:28.378Z,3.80
2019-03-13T14:27:56.422Z,3.83
2019-03-13T14:30:24.519Z,4.20
2019-03-13T14:32:52.555Z,4.35
2019-03-13T14:35:20.601Z,4.50
2019-03-13T14:37:48.616Z,4.83
2019-03-13T14:40:16.788Z,4.37
2019-03-13T14:42:44.829Z,3.67
2019-03-13T14:45:13.061Z,3.40
2019-03-13T14:47:41.132Z,3.45
2019-03-13T14:50:09.693Z,2.92
2019-03-13T14:52:37.750Z,2.10
2019-03-13T14:55:06.893Z,2.30
2019-03-13T14:57:34.938Z,2.30
2019-03-13T15:00:02.951Z,2.30
2019-03-13T15:02:31.029Z,2.55
2019-03-13T15:04:59.045Z,2.87
2019-03-13T15:07:27.113Z,3.83
2019-03-13T15:09:55.162Z,3.45
2019-03-13T15:12:23.290Z,3.65
2019-03-13T15:14:51.506Z,2.90
2019-03-13T15:17:19.741Z,2.60
2019-03-13T15:19:47.799Z,6.75
2019-03-13T15:22:15.856Z,11.18
2019-03-13T15:24:43.926Z,5.30
2019-03-13T15:27:12.000Z,4.47
2019-03-13T15:29:40.142Z,2.92
2019-03-13T15:32:08.197Z,2.67
2019-03-13T15:34:36.270Z,2.95
2019-03-13T15:37:04.457Z,4.25
2019-03-13T15:39:32.460Z,4.80
2019-03-13T15:42:00.449Z,5.70
2019-03-13T15:44:28.618Z,6.53
2019-03-13T15:46:56.801Z,4.33
2019-03-13T15:49:24.871Z,3.55
2019-03-13T15:51:52.939Z,2.22
2019-03-13T15:54:20.972Z,2.15
2019-03-13T15:56:49.095Z,2.80
2019-03-13T15:59:17.202Z,2.12
2019-03-13T16:01:45.403Z,2.50
2019-03-13T16:04:13.557Z,4.95
2019-03-13T16:06:41.633Z,5.92
2019-03-13T16:09:10.725Z,3.80
2019-03-13T16:11:38.778Z,4.08
2019-03-13T16:14:06.946Z,4.60
2019-03-13T16:16:35.148Z,6.15
2019-03-13T16:19:03.360Z,7.97
2019-03-13T16:21:31.512Z,6.17
2019-03-13T16:23:59.694Z,7.97
2019-03-13T16:26:27.822Z,4.17
2019-03-13T16:28:55.889Z,3.77
2019-03-13T16:31:24.150Z,3.20
2019-03-13T16:33:52.179Z,2.80
2019-03-13T16:36:20.269Z,2.65
2019-03-13T16:38:48.332Z,2.70
2019-03-13T16:41:16.550Z,2.87
2019-03-13T16:43:44.670Z,2.40
2019-03-13T16:46:12.836Z,2.62
2019-03-13T16:48:40.886Z,2.95
2019-03-13T16:51:09.184Z,2.77
2019-03-13T16:53:37.319Z,3.08
2019-03-13T16:56:05.475Z,2.77
2019-03-13T16:58:33.641Z,2.90
2019-03-13T17:01:01.883Z,2.87
2019-03-13T17:03:30.023Z,3.08
2019-03-13T17:05:58.202Z,2.80
2019-03-13T17:08:26.296Z,2.72
2019-03-13T17:10:54.395Z,2.85
2019-03-13T17:13:22.493Z,3.22
2019-03-13T17:15:50.675Z,3.00
2019-03-13T17:18:18.713Z,3.20
2019-03-13T17:20:46.816Z,3.50
2019-03-13T17:23:14.980Z,3.55
2019-03-13T17:25:43.152Z,3.85
2019-03-13T17:28:11.298Z,3.62
2019-03-13T17:30:39.379Z,5.00
2019-03-13T17:33:07.613Z,8.30
2019-03-13T17:35:35.740Z,10.78
2019-03-13T17:38:03.909Z,8.53
2019-03-13T17:40:32.108Z,9.10
2019-03-13T17:43:00.329Z,4.72
2019-03-13T17:45:28.545Z,4.75
2019-03-13T17:47:56.761Z,4.05
2019-03-13T17:50:24.838Z,3.80
2019-03-13T17:52:52.997Z,4.17
2019-03-13T17:55:21.119Z,3.65
2019-03-13T17:57:49.236Z,4.00
2019-03-13T18:00:21.470Z,4.10
2019-03-13T18:02:49.577Z,5.75
2019-03-13T18:05:17.673Z,7.80
2019-03-13T18:07:45.755Z,6.80
2019-03-13T18:10:14.942Z,5.27
2019-03-13T18:12:42.945Z,4.55
2019-03-13T18:15:11.139Z,4.37
2019-03-13T18:17:39.177Z,4.87
2019-03-13T18:20:08.755Z,5.17
2019-03-13T18:22:36.903Z,5.50
2019-03-13T18:25:05.361Z,5.33
2019-03-13T18:27:33.381Z,4.25
2019-03-13T18:30:02.590Z,4.60
2019-03-13T18:32:41.352Z,4.58
2019-03-13T18:35:00.602Z,4.62
2019-03-13T18:37:28.606Z,4.62
2019-03-13T18:39:56.737Z,6.58
2019-03-13T18:42:24.947Z,9.55
2019-03-13T18:44:53.149Z,8.08
2019-03-13T18:47:21.275Z,7.85
2019-03-13T18:49:49.435Z,5.83
2019-03-13T18:52:17.603Z,5.37
2019-03-13T18:54:45.642Z,5.30
2019-03-13T19:00:34.118Z,4.55
2019-03-13T19:03:02.155Z,4.65
2019-03-13T19:05:30.508Z,5.37
2019-03-13T19:07:58.584Z,5.00
2019-03-13T19:10:26.699Z,4.75
2019-03-13T19:12:54.847Z,5.15
2019-03-13T19:15:23.022Z,4.37
2019-03-13T19:17:51.090Z,4.65
2019-03-13T19:20:19.805Z,4.67
2019-03-13T19:22:48.219Z,4.83
2019-03-13T19:25:16.338Z,4.97
2019-03-13T19:27:44.411Z,5.55
2019-03-13T19:30:16.530Z,5.30
2019-03-13T19:32:44.630Z,5.08
2019-03-13T19:35:12.733Z,5.97
2019-03-13T19:37:40.817Z,5.20
2019-03-13T19:40:09.488Z,5.47
2019-03-13T19:42:37.582Z,4.95
2019-03-13T19:45:06.308Z,4.94
2019-03-13T19:47:34.466Z,5.40
2019-03-13T19:50:02.658Z,4.53
2019-03-13T19:52:30.799Z,4.47
2019-03-13T19:54:58.791Z,5.15
2019-03-13T19:57:26.863Z,5.08
2019-03-13T19:59:54.877Z,4.22
2019-03-13T20:02:23.059Z,4.65
2019-03-13T20:04:51.181Z,3.87
2019-03-13T20:07:19.281Z,4.28
2019-03-13T20:09:47.469Z,3.87
2019-03-13T20:12:15.553Z,4.15
2019-03-13T20:14:43.651Z,4.12
2019-03-13T20:17:11.705Z,3.75
2019-03-13T20:19:39.906Z,3.67
2019-03-13T20:22:07.981Z,3.60
2019-03-13T20:27:49.483Z,3.40
2019-03-13T20:30:18.338Z,3.37
2019-03-13T20:32:46.453Z,3.58
2019-03-13T20:35:14.705Z,3.63
2019-03-13T20:37:42.835Z,3.33
2019-03-13T20:40:12.077Z,3.15
2019-03-13T20:42:40.156Z,3.75
2019-03-13T20:45:09.302Z,4.03
2019-03-13T20:47:37.301Z,4.20
2019-03-13T20:50:05.594Z,3.95
2019-03-13T20:52:33.759Z,4.10
2019-03-13T20:55:02.142Z,4.08
2019-03-13T20:57:30.225Z,4.50
2019-03-13T20:59:58.489Z,3.92
2019-03-13T21:02:26.500Z,4.28
2019-03-13T21:04:54.629Z,4.40
2019-03-13T21:07:22.712Z,4.58
2019-03-13T21:09:50.784Z,4.75
2019-03-13T21:12:18.843Z,4.72
2019-03-13T21:14:46.931Z,4.55
2019-03-13T21:17:15.072Z,4.60
2019-03-13T21:19:43.083Z,4.42
2019-03-13T21:22:11.365Z,4.65
2019-03-13T21:24:39.593Z,4.65
2019-03-13T21:27:07.776Z,4.78
2019-03-13T21:29:35.933Z,5.12
2019-03-13T21:32:04.015Z,4.53
2019-03-13T21:34:32.024Z,4.50
2019-03-13T21:37:00.116Z,4.30
2019-03-13T21:39:28.150Z,4.80
2019-03-13T21:41:56.224Z,4.75
2019-03-13T21:44:24.242Z,4.92
2019-03-13T21:46:52.352Z,4.70
2019-03-13T21:49:20.402Z,4.55
2019-03-13T21:51:48.426Z,4.67
2019-03-13T21:54:16.437Z,4.40
2019-03-13T21:56:44.463Z,3.98
2019-03-13T21:59:12.501Z,4.47
2019-03-13T22:01:40.564Z,4.30
2019-03-13T22:04:32.179Z,4.28
2019-03-13T22:07:00.534Z,4.28
2019-03-13T22:09:28.803Z,3.70
2019-03-13T22:11:56.978Z,3.98
2019-03-13T22:14:25.149Z,3.60
2019-03-13T22:16:53.325Z,3.45
2019-03-13T22:19:21.486Z,3.37
2019-03-13T22:21:54.947Z,3.20
2019-03-13T22:24:23.077Z,3.45
2019-03-13T22:26:51.211Z,3.25
2019-03-13T22:29:19.255Z,3.08
2019-03-13T22:31:47.363Z,3.33
2019-03-13T22:34:15.732Z,3.05
2019-03-13T22:36:43.820Z,2.83
2019-03-13T22:39:11.833Z,2.50
2019-03-13T22:41:39.930Z,2.87
2019-03-13T22:44:08.046Z,2.65
2019-03-13T22:46:36.173Z,2.80
2019-03-13T22:49:04.313Z,2.70
2019-03-13T22:51:35.541Z,3.00
2019-03-13T22:54:02.190Z,2.92
2019-03-13T22:56:30.260Z,3.35
2019-03-13T22:58:58.646Z,2.67
2019-03-13T23:01:26.871Z,2.65
2019-03-13T23:03:55.126Z,2.67
2019-03-13T23:06:23.209Z,2.98
2019-03-13T23:08:51.301Z,2.60
2019-03-13T23:11:19.433Z,2.75
2019-03-13T23:13:47.512Z,2.62
2019-03-13T23:16:15.672Z,2.47
2019-03-13T23:18:43.791Z,2.52
2019-03-13T23:21:11.935Z,3.10
2019-03-13T23:23:40.036Z,2.72
2019-03-13T23:26:08.178Z,2.70
2019-03-13T23:28:36.146Z,3.27
2019-03-13T23:31:04.242Z,3.17
2019-03-13T23:33:32.267Z,3.25
2019-03-13T23:36:01.925Z,3.42
2019-03-13T23:38:29.968Z,2.98
2019-03-13T23:40:58.104Z,3.27
2019-03-13T23:43:26.211Z,3.30
2019-03-13T23:45:54.281Z,3.50
2019-03-13T23:48:22.334Z,2.95
2019-03-13T23:50:50.435Z,3.30
2019-03-13T23:53:18.611Z,3.46
2019-03-13T23:55:46.673Z,3.40
2019-03-13T23:58:14.715Z,3.30
